Time;durP1;ratioP1;P1;durP2;ratioP2;P2;SDS_P1;SDS_P2;PMS_P1;PMS_P2;Temp;Humidity;BMP_temperature;BMP_pressure;BME280_temperature;BME280_humidity;BME280_pressure;Samples;Min_cycle;Max_cycle;Signal;HPM_P1;HPM_P2
2022/03/09 00:01:58;;;;;;;17.85;9.32;;;;;;;2.22;65.01;102094.22;5052245;28;20024;-75
2022/03/09 00:04:23;;;;;;;15.07;8.90;;;;;;;2.19;65.25;102091.59;5042142;27;20037;-74
2022/03/09 00:06:48;;;;;;;16.40;9.35;;;;;;;2.15;64.55;102094.16;5051964;28;20389;-77
2022/03/09 00:09:14;;;;;;;15.48;8.95;;;;;;;2.11;65.16;102093.22;5052113;28;20176;-76
2022/03/09 00:11:40;;;;;;;14.85;8.75;;;;;;;2.10;65.29;102097.59;5052103;28;20022;-75
2022/03/09 00:14:06;;;;;;;16.30;8.82;;;;;;;2.06;65.82;102108.88;5059072;27;20035;-73
2022/03/09 00:16:31;;;;;;;17.30;9.15;;;;;;;1.98;66.05;102102.69;5052014;28;20446;-74
2022/03/09 00:18:56;;;;;;;15.57;8.60;;;;;;;1.93;66.31;102113.09;5051997;28;20447;-76
2022/03/09 00:21:22;;;;;;;15.48;9.13;;;;;;;1.95;66.60;102115.72;5049927;28;20033;-75
2022/03/09 00:23:47;;;;;;;16.70;8.85;;;;;;;1.96;65.87;102115.72;5044627;27;20021;-73
2022/03/09 00:26:13;;;;;;;16.70;9.07;;;;;;;2.00;65.40;102110.56;5051188;28;20487;-73
2022/03/09 00:28:39;;;;;;;16.45;8.50;;;;;;;1.99;65.35;102107.03;5051662;28;20109;-74
2022/03/09 00:31:04;;;;;;;16.17;9.38;;;;;;;1.95;65.65;102107.88;5051778;28;20021;-74
2022/03/09 00:33:30;;;;;;;17.48;8.98;;;;;;;1.88;65.45;102117.38;5052787;27;20047;-74
2022/03/09 00:35:55;;;;;;;16.95;9.55;;;;;;;1.83;66.16;102116.47;5057076;27;20029;-76
2022/03/09 00:38:21;;;;;;;17.60;9.10;;;;;;;1.80;66.90;102124.22;5051656;28;20442;-74
2022/03/09 00:40:48;;;;;;;17.17;9.13;;;;;;;1.77;67.00;102121.59;5051495;28;20037;-73
2022/03/09 00:43:15;;;;;;;15.77;9.30;;;;;;;1.73;67.21;102128.50;5051526;28;20033;-74
2022/03/09 00:45:40;;;;;;;17.60;9.10;;;;;;;1.71;67.88;102119.78;5058082;27;20441;-76
2022/03/09 00:48:06;;;;;;;20.23;9.65;;;;;;;1.71;67.50;102119.78;5051203;28;20028;-74
2022/03/09 00:50:31;;;;;;;16.27;9.15;;;;;;;1.74;66.75;102134.59;5051496;28;20028;-76
2022/03/09 00:52:56;;;;;;;14.98;9.02;;;;;;;1.69;67.35;102136.28;5051016;28;20465;-76
2022/03/09 00:55:21;;;;;;;19.13;9.73;;;;;;;1.68;67.72;102139.78;5058050;27;20069;-75
2022/03/09 00:57:47;;;;;;;19.63;9.57;;;;;;;1.65;68.47;102138.00;5050997;28;20025;-74
2022/03/09 01:00:13;;;;;;;17.77;9.82;;;;;;;1.63;67.54;102134.47;5051347;28;20487;-72
2022/03/09 01:02:40;;;;;;;18.13;9.57;;;;;;;1.66;67.42;102133.63;5051233;28;20078;-76
2022/03/09 01:05:06;;;;;;;19.73;9.38;;;;;;;1.66;67.69;102131.91;5051782;27;20461;-72
2022/03/09 01:07:31;;;;;;;17.33;9.27;;;;;;;1.64;68.15;102124.03;5056929;27;20086;-75
2022/03/09 01:09:56;;;;;;;16.67;9.38;;;;;;;1.63;67.74;102124.91;5051016;28;20482;-73
2022/03/09 01:12:22;;;;;;;16.48;9.30;;;;;;;1.63;67.36;102127.50;5051069;28;20078;-76
2022/03/09 01:14:47;;;;;;;18.02;9.07;;;;;;;1.60;67.19;102124.88;5051090;28;20096;-72
2022/03/09 01:17:12;;;;;;;15.07;9.10;;;;;;;1.60;68.08;102137.94;5057764;27;20028;-76
2022/03/09 01:19:38;;;;;;;16.38;9.40;;;;;;;1.61;67.31;102125.72;5050698;28;20388;-76
2022/03/09 01:22:03;;;;;;;16.45;9.23;;;;;;;1.64;66.67;102133.63;5050693;28;20028;-76
2022/03/09 01:24:28;;;;;;;15.80;9.20;;;;;;;1.63;66.52;102131.88;5050920;28;20069;-76
2022/03/09 01:26:53;;;;;;;15.77;9.05;;;;;;;1.52;68.14;102131.72;5057996;27;20364;-75
2022/03/09 01:29:19;;;;;;;17.83;9.82;;;;;;;1.43;69.17;102135.09;5050436;28;20025;-76
2022/03/09 01:31:44;;;;;;;17.85;9.63;;;;;;;1.40;69.35;102136.78;5050797;28;20483;-76
2022/03/09 01:34:09;;;;;;;15.85;9.15;;;;;;;1.36;69.73;102137.59;5050801;28;20108;-74
2022/03/09 01:36:35;;;;;;;16.90;9.40;;;;;;;1.27;70.59;102128.75;5057658;27;20143;-74
2022/03/09 01:39:00;;;;;;;15.52;9.60;;;;;;;1.27;70.49;102130.50;5090259;27;20027;-76
2022/03/09 01:41:25;;;;;;;18.23;9.77;;;;;;;1.28;69.82;102132.28;5050493;28;20029;-74
2022/03/09 01:44:09;;;;;;;17.23;9.75;;;;;;;1.34;68.44;102124.50;5050653;28;20021;-75
2022/03/09 01:46:35;;;;;;;18.75;9.55;;;;;;;1.30;69.68;102130.53;5050535;28;20052;-75
2022/03/09 01:49:00;;;;;;;18.42;9.98;;;;;;;1.28;70.06;102127.91;5134430;27;20019;-75
2022/03/09 01:51:26;;;;;;;16.25;9.07;;;;;;;1.26;69.67;102118.31;5069322;27;20088;-76
2022/03/09 01:53:52;;;;;;;17.55;9.68;;;;;;;1.27;69.42;102123.53;5057535;27;20456;-73
2022/03/09 01:56:17;;;;;;;17.88;9.93;;;;;;;1.27;69.40;102117.47;5070904;27;20031;-76
2022/03/09 01:58:43;;;;;;;17.52;10.07;;;;;;;1.28;69.15;102112.25;5066940;27;20020;-74
2022/03/09 02:01:08;;;;;;;16.08;9.48;;;;;;;1.29;69.29;102108.78;5050092;28;20029;-75
2022/03/09 02:03:35;;;;;;;16.83;9.30;;;;;;;1.33;69.28;102108.81;5050409;28;20055;-73
2022/03/09 02:06:00;;;;;;;19.95;9.52;;;;;;;1.33;68.67;102109.72;5050357;28;20052;-75
2022/03/09 02:11:11;;;;;;;17.38;9.45;;;;;;;1.30;68.27;102107.06;5050106;28;20384;-76
2022/03/09 02:13:37;;;;;;;19.00;9.65;;;;;;;1.26;68.58;102103.50;5050111;28;20026;-77
2022/03/09 02:16:03;;;;;;;18.55;9.93;;;;;;;1.20;68.72;102097.34;5049234;28;20040;-73
2022/03/09 02:18:28;;;;;;;15.95;9.65;;;;;;;1.20;68.48;102108.66;5033564;28;20030;-75
2022/03/09 02:21:00;;;;;;;18.15;9.55;;;;;;;1.17;68.54;102113.81;5050131;28;20516;-76
2022/03/09 02:23:26;;;;;;;18.75;9.48;;;;;;;1.13;69.14;102112.91;5049416;28;20021;-76
2022/03/09 02:25:51;;;;;;;16.02;9.25;;;;;;;1.17;68.69;102115.56;5049366;28;20452;-75
2022/03/09 02:28:17;;;;;;;15.57;9.15;;;;;;;1.18;68.03;102114.69;5049999;28;20436;-74
2022/03/09 02:30:42;;;;;;;16.65;9.15;;;;;;;1.18;68.04;102112.97;5056950;27;20029;-75
2022/03/09 02:33:07;;;;;;;17.50;9.10;;;;;;;1.20;68.36;102120.81;5049604;28;20033;-75
2022/03/09 02:35:33;;;;;;;17.80;10.20;;;;;;;1.21;68.14;102114.75;5049745;28;20548;-76
2022/03/09 02:37:58;;;;;;;18.75;9.27;;;;;;;1.21;67.68;102114.75;5050026;28;20070;-73
2022/03/09 02:40:23;;;;;;;17.75;9.38;;;;;;;1.22;67.92;102108.69;5056600;27;20025;-75
2022/03/09 02:42:49;;;;;;;17.65;9.70;;;;;;;1.22;67.25;102109.56;5049547;28;20477;-76
2022/03/09 02:45:14;;;;;;;17.83;9.20;;;;;;;1.23;66.87;102106.09;5049551;28;20076;-74
2022/03/09 02:47:41;;;;;;;21.85;10.18;;;;;;;1.21;67.70;102101.72;5049728;28;20068;-74
2022/03/09 02:50:07;;;;;;;17.50;8.90;;;;;;;1.18;67.50;102105.16;5057315;27;20446;-74
2022/03/09 02:52:36;;;;;;;16.70;9.10;;;;;;;1.13;68.04;102109.44;5054002;27;20104;-76
2022/03/09 02:55:01;;;;;;;15.20;8.85;;;;;;;1.08;68.70;102103.25;5052555;28;20033;-74
2022/03/09 02:57:27;;;;;;;17.75;9.60;;;;;;;1.04;69.06;102098.88;5057158;27;20043;-71
2022/03/09 02:59:52;;;;;;;18.67;9.35;;;;;;;0.98;69.95;102097.03;5055400;28;20039;-76
2022/03/09 03:02:17;;;;;;;18.67;9.65;;;;;;;0.97;70.86;102092.66;5129617;27;20031;-73
2022/03/09 03:04:43;;;;;;;17.52;9.07;;;;;;;0.96;69.51;102089.19;5109537;27;20052;-75
2022/03/09 03:07:08;;;;;;;17.23;9.77;;;;;;;0.96;69.92;102090.94;5053380;28;20028;-76
2022/03/09 03:09:33;;;;;;;19.50;9.50;;;;;;;0.97;69.90;102090.94;5146095;27;20549;-75
2022/03/09 03:11:58;;;;;;;15.07;9.02;;;;;;;0.96;69.33;102093.53;5158046;27;20027;-76
2022/03/09 03:14:24;;;;;;;16.92;9.25;;;;;;;0.92;69.29;102087.38;5158527;27;20109;-76
2022/03/09 03:16:49;;;;;;;18.20;9.15;;;;;;;0.92;69.46;102097.81;5063814;27;20036;-76
2022/03/09 03:19:14;;;;;;;17.00;9.60;;;;;;;0.92;70.15;102091.72;5059834;27;20067;-75
2022/03/09 03:21:39;;;;;;;17.17;9.50;;;;;;;0.88;70.48;102095.13;5053080;28;20037;-76
2022/03/09 03:24:05;;;;;;;18.80;10.02;;;;;;;0.81;71.09;102095.03;5052749;28;20036;-74
2022/03/09 03:26:30;;;;;;;16.98;9.75;;;;;;;0.80;71.30;102095.88;5052068;28;20024;-75
2022/03/09 03:28:58;;;;;;;18.85;10.05;;;;;;;0.78;71.34;102099.31;5059611;27;20104;-75
2022/03/09 03:31:23;;;;;;;16.80;9.68;;;;;;;0.78;71.39;102097.59;5052691;28;20073;-76
2022/03/09 03:33:49;;;;;;;18.38;10.07;;;;;;;0.76;71.33;102093.22;5052569;28;20470;-74
2022/03/09 03:36:15;;;;;;;20.52;9.93;;;;;;;0.75;71.41;102092.31;5038418;28;20025;-73
2022/03/09 03:38:41;;;;;;;19.13;9.57;;;;;;;0.76;70.90;102099.28;5063913;27;20021;-76
2022/03/09 03:41:06;;;;;;;16.77;9.40;;;;;;;0.79;70.71;102101.97;5157822;27;20105;-74
2022/03/09 03:43:31;;;;;;;18.60;9.65;;;;;;;0.76;70.56;102099.28;5157500;27;20018;-76
2022/03/09 03:45:57;;;;;;;17.17;9.15;;;;;;;0.72;71.17;102100.09;5157720;27;20034;-75
2022/03/09 03:48:22;;;;;;;18.27;9.23;;;;;;;0.65;71.95;102088.72;5080287;27;20473;-76
2022/03/09 03:50:47;;;;;;;17.60;9.90;;;;;;;0.63;72.62;102099.97;5141071;27;20023;-73
2022/03/09 03:53:12;;;;;;;18.23;9.10;;;;;;;0.59;72.78;102096.41;5157707;27;20056;-73
2022/03/09 03:55:38;;;;;;;17.05;9.48;;;;;;;0.61;71.90;102089.47;5157593;27;20061;-74
2022/03/09 03:58:03;;;;;;;17.95;9.80;;;;;;;0.61;71.23;102081.66;5118193;27;20494;-74
2022/03/09 04:00:29;;;;;;;17.40;8.65;;;;;;;0.61;71.99;102086.00;5098388;27;20030;-75
2022/03/09 04:02:54;;;;;;;18.63;9.13;;;;;;;0.60;71.61;102086.84;5156841;27;20022;-76
2022/03/09 04:05:20;;;;;;;18.08;8.93;;;;;;;0.58;71.61;102083.38;5157275;27;20027;-77
2022/03/09 04:07:46;;;;;;;18.60;8.95;;;;;;;0.58;71.31;102089.44;5157243;27;20378;-74
2022/03/09 04:10:11;;;;;;;16.50;9.15;;;;;;;0.58;71.77;102096.41;5061901;27;20064;-76
2022/03/09 04:12:36;;;;;;;15.85;8.98;;;;;;;0.61;71.29;102091.22;5156765;27;20051;-76
2022/03/09 04:15:02;;;;;;;18.42;9.13;;;;;;;0.64;71.10;102089.56;5157163;27;20467;-76
2022/03/09 04:17:27;;;;;;;17.25;8.65;;;;;;;0.66;70.44;102086.97;5156872;27;20034;-76
2022/03/09 04:19:53;;;;;;;16.45;9.20;;;;;;;0.72;70.60;102092.28;5099014;27;20043;-74
2022/03/09 04:22:18;;;;;;;16.88;9.60;;;;;;;0.77;70.06;102088.00;5133204;27;20470;-76
2022/03/09 04:24:43;;;;;;;15.75;8.73;;;;;;;0.87;69.66;102082.94;5157022;27;20445;-75
2022/03/09 04:27:09;;;;;;;17.60;8.57;;;;;;;0.90;69.63;102088.22;5156987;27;20063;-74
2022/03/09 04:29:35;;;;;;;14.98;8.80;;;;;;;0.89;69.81;102076.88;5139557;27;20021;-74
2022/03/09 04:32:00;;;;;;;19.40;9.40;;;;;;;0.89;69.90;102083.84;5107253;27;20386;-74
2022/03/09 04:34:26;;;;;;;19.15;8.85;;;;;;;0.86;69.97;102074.25;5156589;27;20485;-75
2022/03/09 04:36:51;;;;;;;17.42;8.45;;;;;;;0.83;70.43;102082.00;5156781;27;20026;-75
2022/03/09 04:39:17;;;;;;;16.25;8.90;;;;;;;0.76;71.01;102074.97;5156769;27;20485;-74
2022/03/09 04:41:42;;;;;;;16.70;8.98;;;;;;;0.73;71.38;102091.44;5097329;27;20031;-74
2022/03/09 04:44:08;;;;;;;17.17;9.07;;;;;;;0.68;72.12;102076.56;5051205;28;20021;-75
2022/03/09 04:46:33;;;;;;;15.98;9.40;;;;;;;0.61;72.34;102080.81;5051280;28;20053;-75
2022/03/09 04:48:59;;;;;;;20.00;9.75;;;;;;;0.55;72.58;102083.31;5051460;28;20031;-75
2022/03/09 04:51:24;;;;;;;17.38;9.10;;;;;;;0.49;72.93;102095.38;5056697;27;20036;-75
2022/03/09 04:53:50;;;;;;;16.35;9.18;;;;;;;0.41;74.24;102089.16;5052350;27;20169;-74
2022/03/09 04:56:15;;;;;;;15.18;9.13;;;;;;;0.32;74.45;102087.28;5051353;28;20104;-74
2022/03/09 04:58:40;;;;;;;18.35;10.10;;;;;;;0.22;75.00;102108.81;5051337;28;20029;-74
2022/03/09 05:01:06;;;;;;;15.40;8.82;;;;;;;0.18;75.61;102107.00;5050840;28;20028;-73
2022/03/09 05:03:33;;;;;;;17.15;8.88;;;;;;;0.12;75.90;102097.31;5109435;27;20434;-75
2022/03/09 05:05:58;;;;;;;16.17;9.57;;;;;;;0.08;76.05;102105.06;5156296;27;20029;-75
2022/03/09 05:08:23;;;;;;;19.27;9.77;;;;;;;0.00;76.29;102107.53;5156013;27;20019;-75
2022/03/09 05:10:49;;;;;;;15.88;9.13;;;;;;;-0.01;75.94;102096.22;5156124;27;20026;-74
2022/03/09 05:13:14;;;;;;;21.83;10.38;;;;;;;-0.09;75.67;102102.13;5099430;27;20017;-73
2022/03/09 05:15:40;;;;;;;18.40;10.00;;;;;;;-0.17;76.16;102107.19;5050829;28;20025;-73
2022/03/09 05:18:05;;;;;;;20.60;10.05;;;;;;;-0.21;76.91;102121.84;5050857;28;20028;-76
2022/03/09 05:20:30;;;;;;;18.77;9.80;;;;;;;-0.28;77.48;102113.88;5051027;28;20028;-76
2022/03/09 05:22:56;;;;;;;18.38;9.63;;;;;;;-0.30;77.45;102120.81;5050773;28;20029;-76
2022/03/09 05:25:22;;;;;;;21.55;9.60;;;;;;;-0.35;77.88;102111.16;5057744;27;20029;-73
2022/03/09 05:27:48;;;;;;;19.73;10.40;;;;;;;-0.38;77.96;102120.66;5050957;28;20104;-76
2022/03/09 05:30:13;;;;;;;18.88;9.85;;;;;;;-0.40;78.43;102107.56;5050522;28;20043;-73
2022/03/09 05:32:40;;;;;;;18.58;10.25;;;;;;;-0.39;78.02;102113.69;5050532;28;20032;-75
2022/03/09 05:35:06;;;;;;;18.60;9.90;;;;;;;-0.40;77.78;102110.19;5057669;27;20048;-74
2022/03/09 05:37:39;;;;;;;16.63;9.15;;;;;;;-0.40;77.91;102115.38;5050862;28;20112;-75
2022/03/09 05:40:06;;;;;;;18.52;9.65;;;;;;;-0.46;78.31;102125.69;5050659;28;20032;-73
2022/03/09 05:42:31;;;;;;;17.55;9.75;;;;;;;-0.50;78.34;102129.94;5050488;28;20021;-74
2022/03/09 05:44:57;;;;;;;21.20;9.75;;;;;;;-0.52;78.78;102129.03;5055040;27;20047;-77
2022/03/09 05:47:22;;;;;;;18.25;9.95;;;;;;;-0.57;78.66;102129.78;5070158;28;20379;-73
2022/03/09 05:49:47;;;;;;;18.20;10.15;;;;;;;-0.61;79.32;102121.03;5070544;28;20073;-73
2022/03/09 05:52:12;;;;;;;18.00;9.88;;;;;;;-0.61;79.66;102126.22;5070571;28;20080;-76
2022/03/09 05:54:38;;;;;;;24.83;9.60;;;;;;;-0.59;79.63;102129.75;5068845;27;20033;-75
2022/03/09 05:57:04;;;;;;;18.10;9.32;;;;;;;-0.55;79.80;102126.38;5050467;28;20033;-73
2022/03/09 05:59:29;;;;;;;19.75;9.85;;;;;;;-0.51;79.73;102130.78;5142421;27;20454;-76
2022/03/09 06:01:54;;;;;;;19.85;10.27;;;;;;;-0.51;79.42;102135.13;5154410;27;20046;-75
2022/03/09 06:04:20;;;;;;;17.27;9.93;;;;;;;-0.51;79.17;102141.19;5155029;27;20058;-74
2022/03/09 06:06:45;;;;;;;19.17;9.57;;;;;;;-0.50;79.10;102142.94;5075040;27;20032;-76
2022/03/09 06:09:10;;;;;;;18.48;9.25;;;;;;;-0.52;79.56;102129.03;5050327;28;20063;-74
2022/03/09 06:11:36;;;;;;;17.85;9.38;;;;;;;-0.51;79.38;102124.72;5055971;27;20085;-74
2022/03/09 06:14:01;;;;;;;16.40;9.20;;;;;;;-0.48;79.63;102129.97;5049896;28;20464;-75
2022/03/09 06:16:26;;;;;;;19.13;9.40;;;;;;;-0.44;79.39;102142.19;5053405;27;20173;-76
2022/03/09 06:18:51;;;;;;;15.57;9.10;;;;;;;-0.47;79.02;102134.34;5069607;28;20104;-73
2022/03/09 06:21:17;;;;;;;20.45;9.55;;;;;;;-0.51;78.87;102138.59;5069911;28;20028;-73
2022/03/09 06:23:42;;;;;;;18.08;9.20;;;;;;;-0.50;79.72;102132.53;5069782;28;20108;-77
2022/03/09 06:26:08;;;;;;;18.15;9.65;;;;;;;-0.46;79.26;102138.69;5072691;27;20586;-74
2022/03/09 06:28:33;;;;;;;17.17;9.38;;;;;;;-0.43;78.96;102140.50;5075645;27;20040;-76
2022/03/09 15:45:57;;;;;;;27.67;15.50;;;;;;;18.73;24.88;102081.09;4952722;24;20402;-78
2022/03/09 15:48:23;;;;;;;27.83;15.77;;;;;;;18.56;24.56;102078.59;4836996;29;20379;-80
2022/03/09 15:50:48;;;;;;;28.90;15.63;;;;;;;18.43;25.06;102078.44;4837913;29;20046;-81
2022/03/09 15:53:14;;;;;;;26.08;15.25;;;;;;;18.30;25.16;102073.78;4829096;29;20035;-77
2022/03/09 15:55:42;;;;;;;29.63;15.93;;;;;;;18.30;25.24;102081.81;4816994;29;20077;-76
2022/03/09 16:00:55;;;;;;;26.30;14.93;;;;;;;18.10;25.73;102084.78;4155316;27;20047;-80
2022/03/09 16:03:21;;;;;;;29.80;15.73;;;;;;;18.04;26.44;102069.91;4824377;29;20046;-74
2022/03/09 16:05:47;;;;;;;29.45;15.68;;;;;;;18.04;25.62;102069.06;4817564;29;20080;-79
2022/03/09 16:08:13;;;;;;;30.83;15.32;;;;;;;17.79;26.55;102065.91;4823106;29;20407;-74
2022/03/09 16:10:39;;;;;;;30.95;16.02;;;;;;;17.81;26.50;102064.00;4825458;29;20031;-80
2022/03/09 16:13:05;;;;;;;27.80;15.55;;;;;;;17.97;26.38;102064.03;4824458;29;20038;-81
2022/03/09 16:15:32;;;;;;;28.25;14.52;;;;;;;17.77;26.36;102067.78;4825760;29;20573;-76
2022/03/09 16:17:58;;;;;;;29.30;16.25;;;;;;;17.53;26.78;102070.00;4794333;29;20099;-76
2022/03/09 16:20:23;;;;;;;30.08;16.63;;;;;;;17.52;27.14;102069.16;4824905;29;20125;-74
2022/03/09 16:22:49;;;;;;;29.63;15.20;;;;;;;17.51;27.05;102074.59;4825376;29;20030;-79
2022/03/09 16:25:15;;;;;;;31.02;15.73;;;;;;;17.39;27.18;102069.91;4824278;29;20046;-77
2022/03/09 16:27:40;;;;;;;32.47;16.35;;;;;;;17.22;27.95;102073.50;4807838;29;20499;-78
2022/03/09 16:30:06;;;;;;;31.73;15.50;;;;;;;17.07;29.53;102077.84;4825421;29;20034;-80
2022/03/09 16:32:32;;;;;;;31.60;15.98;;;;;;;16.85;29.83;102074.47;4825163;29;20026;-76
2022/03/09 16:34:57;;;;;;;31.27;16.27;;;;;;;16.49;31.59;102079.88;4824684;29;20053;-75
2022/03/09 16:37:23;;;;;;;29.80;16.20;;;;;;;16.32;31.57;102086.91;4824479;29;20383;-75
2022/03/09 16:39:49;;;;;;;32.08;16.45;;;;;;;16.16;31.99;102086.81;4824569;29;20038;-78
2022/03/09 16:42:15;;;;;;;32.45;16.30;;;;;;;15.88;32.82;102084.56;4824604;29;20050;-78
2022/03/09 16:44:42;;;;;;;30.35;16.08;;;;;;;15.60;33.29;102087.63;4822107;29;20391;-79
2022/03/09 16:47:08;;;;;;;28.83;15.65;;;;;;;15.22;34.22;102091.13;4820198;29;20022;-79
2022/03/09 16:49:33;;;;;;;30.60;16.23;;;;;;;14.94;35.21;102096.81;4823577;29;20398;-76
2022/03/09 16:51:59;;;;;;;28.05;15.90;;;;;;;14.67;35.39;102097.91;4823739;29;20027;-79
2022/03/09 16:54:25;;;;;;;29.73;15.05;;;;;;;14.46;35.68;102090.75;4824100;29;20026;-76
2022/03/09 16:56:50;;;;;;;34.17;17.70;;;;;;;14.19;36.39;102090.97;4822448;29;20035;-76
2022/03/09 16:59:15;;;;;;;37.65;16.08;;;;;;;13.96;37.07;102086.53;4824521;29;20054;-78
2022/03/09 17:01:41;;;;;;;33.10;15.90;;;;;;;13.71;38.75;102092.81;4825105;29;20038;-74
2022/03/09 17:04:06;;;;;;;32.65;15.15;;;;;;;13.61;38.64;102097.63;4825343;29;20040;-74
2022/03/09 17:06:33;;;;;;;33.85;16.30;;;;;;;13.47;39.73;102095.47;4824370;29;20031;-76
2022/03/09 17:08:58;;;;;;;32.33;16.42;;;;;;;13.28;40.35;102100.56;4823273;29;20125;-78
2022/03/09 17:11:24;;;;;;;31.45;16.13;;;;;;;13.08;40.93;102096.81;4824974;29;20109;-75
2022/03/09 17:13:49;;;;;;;30.10;16.00;;;;;;;12.88;41.54;102094.00;4824979;29;20502;-75
2022/03/09 17:16:17;;;;;;;34.80;16.75;;;;;;;12.65;42.27;102102.72;4824627;29;20113;-77
2022/03/09 17:18:43;;;;;;;32.63;16.80;;;;;;;12.43;43.01;102106.97;4824393;29;20030;-76
2022/03/09 17:21:08;;;;;;;34.67;16.05;;;;;;;12.25;43.47;102091.59;4824773;29;20061;-75
2022/03/09 17:23:34;;;;;;;31.95;17.20;;;;;;;12.06;44.77;102100.16;4823267;29;20107;-77
2022/03/09 17:25:59;;;;;;;36.15;16.38;;;;;;;11.87;45.19;102099.81;4823702;29;20095;-78
2022/03/09 17:28:24;;;;;;;36.80;16.90;;;;;;;11.75;46.36;102108.13;4824826;29;20037;-75
2022/03/09 17:30:50;;;;;;;33.92;15.93;;;;;;;11.62;46.91;102104.97;4824608;29;20034;-77
2022/03/09 17:33:17;;;;;;;33.03;16.83;;;;;;;11.48;46.07;102106.25;4824995;29;20026;-74
2022/03/09 17:35:43;;;;;;;36.47;16.45;;;;;;;11.35;45.63;102120.75;4824130;29;20041;-74
2022/03/09 17:38:08;;;;;;;36.15;15.50;;;;;;;11.18;46.54;102110.63;4823465;29;20034;-79
2022/03/09 17:40:34;;;;;;;33.03;15.77;;;;;;;11.04;47.22;102115.44;4817342;29;20113;-77
2022/03/09 17:42:59;;;;;;;33.53;16.20;;;;;;;10.95;47.33;102108.59;4815310;29;20030;-75
2022/03/09 17:45:24;;;;;;;32.50;15.68;;;;;;;10.84;48.51;102119.44;4815641;29;20042;-75
2022/03/09 17:47:50;;;;;;;32.83;16.13;;;;;;;10.71;48.89;102125.97;4806513;29;20058;-74
2022/03/09 17:50:18;;;;;;;33.17;16.20;;;;;;;10.58;49.37;102131.56;4818458;29;20121;-75
2022/03/09 17:52:44;;;;;;;31.63;15.27;;;;;;;10.48;49.93;102140.63;4822152;29;20050;-76
2022/03/09 17:55:10;;;;;;;32.22;15.93;;;;;;;10.42;50.16;102143.44;4822745;29;20475;-77
2022/03/09 17:57:36;;;;;;;39.20;17.25;;;;;;;10.31;50.94;102151.59;4806189;29;20065;-74
2022/03/09 18:00:07;;;;;;;32.03;16.33;;;;;;;10.19;51.45;102147.44;4815803;29;20074;-73
2022/03/09 18:02:33;;;;;;;30.00;16.10;;;;;;;10.05;52.45;102160.09;4824300;29;20034;-79
2022/03/09 18:04:58;;;;;;;34.95;17.20;;;;;;;9.92;53.45;102160.34;4823183;29;20040;-74
2022/03/09 18:07:24;;;;;;;34.88;17.23;;;;;;;9.83;54.00;102168.47;4823833;29;20057;-73
2022/03/09 18:09:49;;;;;;;37.67;18.05;;;;;;;9.77;53.24;102166.84;4823846;29;20034;-75
2022/03/09 18:12:15;;;;;;;37.67;17.02;;;;;;;9.74;52.69;102164.25;4807058;29;20394;-79
2022/03/09 18:14:43;;;;;;;35.72;16.80;;;;;;;9.66;53.60;102166.19;4824029;29;20045;-74
2022/03/09 18:17:12;;;;;;;36.38;16.98;;;;;;;9.59;53.24;102170.72;4807397;29;20117;-74
2022/03/09 18:19:38;;;;;;;34.58;17.48;;;;;;;9.48;54.27;102170.06;4823760;29;20037;-75
2022/03/09 18:22:03;;;;;;;34.63;17.63;;;;;;;9.44;54.41;102166.59;4823439;29;20045;-74
2022/03/09 18:24:30;;;;;;;38.95;17.88;;;;;;;9.39;54.06;102168.47;4823647;29;20046;-78
2022/03/09 18:26:56;;;;;;;35.50;18.10;;;;;;;9.33;54.22;102158.88;4824406;29;20034;-78
2022/03/09 18:29:21;;;;;;;35.08;17.10;;;;;;;9.25;55.62;102158.13;4824014;29;20337;-75
2022/03/09 18:31:47;;;;;;;34.33;17.80;;;;;;;9.16;56.72;102163.59;4823430;29;20039;-78
2022/03/09 18:34:12;;;;;;;35.40;18.00;;;;;;;9.13;55.81;102175.09;4823638;29;20418;-71
2022/03/09 18:36:37;;;;;;;36.83;16.92;;;;;;;9.14;55.99;102165.38;4808852;29;20042;-69
2022/03/09 18:39:05;;;;;;;36.90;17.83;;;;;;;9.15;55.06;102167.97;4823541;29;20035;-73
2022/03/09 18:41:32;;;;;;;37.83;16.17;;;;;;;9.13;54.28;102166.25;4823637;29;20031;-72
2022/03/09 18:43:58;;;;;;;35.17;17.25;;;;;;;9.04;56.68;102166.44;4821584;29;20447;-73
2022/03/09 18:46:23;;;;;;;34.65;16.65;;;;;;;8.95;57.21;102170.09;4817059;29;20034;-73
2022/03/09 18:48:48;;;;;;;35.10;17.60;;;;;;;8.91;55.99;102181.63;4821711;29;20039;-74
2022/03/09 18:51:14;;;;;;;43.17;17.10;;;;;;;8.85;55.47;102172.91;4819780;29;20073;-70
2022/03/09 18:53:39;;;;;;;33.67;16.80;;;;;;;8.77;56.28;102182.72;4823131;29;20068;-73
2022/03/09 18:56:05;;;;;;;35.78;17.17;;;;;;;8.68;56.69;102178.47;4828769;29;20474;-69
2022/03/09 18:58:31;;;;;;;34.08;17.02;;;;;;;8.64;57.10;102174.09;4826747;29;20039;-73
2022/03/09 19:00:56;;;;;;;36.35;17.70;;;;;;;8.59;57.44;102173.28;4823114;29;20179;-73
2022/03/09 19:03:22;;;;;;;37.20;17.77;;;;;;;8.56;57.31;102180.41;4823998;29;20026;-71
2022/03/09 19:05:47;;;;;;;34.47;17.65;;;;;;;8.51;56.96;102180.47;4823463;29;20476;-75
2022/03/09 19:08:12;;;;;;;37.85;17.23;;;;;;;8.45;56.21;102185.81;4824468;29;20034;-72
2022/03/09 19:10:38;;;;;;;35.30;17.17;;;;;;;8.36;57.32;102186.81;4823261;29;20070;-73
2022/03/09 19:13:03;;;;;;;37.42;18.48;;;;;;;8.31;57.00;102183.34;4823472;29;20125;-74
2022/03/09 19:15:29;;;;;;;34.85;16.38;;;;;;;8.26;56.93;102179.91;4823619;29;20115;-72
2022/03/09 19:17:55;;;;;;;38.10;18.00;;;;;;;8.18;57.07;102180.91;4822823;29;20113;-74
2022/03/09 19:20:20;;;;;;;35.40;17.35;;;;;;;8.15;57.50;102175.66;4822998;29;20135;-74
2022/03/09 19:22:46;;;;;;;35.03;16.63;;;;;;;8.13;56.64;102177.44;4822416;29;20496;-71
2022/03/09 19:25:11;;;;;;;35.78;16.27;;;;;;;8.11;56.25;102178.38;4815254;29;20038;-74
2022/03/09 19:27:37;;;;;;;35.17;17.05;;;;;;;8.06;56.81;102182.78;4818755;29;20113;-73
2022/03/09 19:30:04;;;;;;;34.95;16.38;;;;;;;7.99;57.30;102187.28;4814433;29;20026;-72
2022/03/09 19:32:29;;;;;;;37.72;17.27;;;;;;;7.93;57.85;102177.69;4833088;29;20037;-72
2022/03/09 19:34:54;;;;;;;35.38;17.15;;;;;;;7.90;57.38;102183.00;4828889;29;20030;-72
2022/03/09 19:37:20;;;;;;;32.25;16.15;;;;;;;7.83;57.73;102184.84;4822240;29;20037;-72
2022/03/09 19:39:45;;;;;;;34.38;17.42;;;;;;;7.82;57.35;102193.63;4831306;29;20391;-74
2022/03/09 19:42:12;;;;;;;39.10;18.63;;;;;;;7.74;57.74;102190.22;4836659;29;20471;-71
2022/03/09 19:44:38;;;;;;;33.67;17.00;;;;;;;7.67;58.24;102191.16;4826439;29;20471;-73
2022/03/09 19:47:03;;;;;;;40.30;18.02;;;;;;;7.54;58.65;102186.06;4830168;29;20091;-71
2022/03/09 19:49:29;;;;;;;38.30;19.23;;;;;;;7.48;58.75;102188.75;4833023;29;20041;-72
2022/03/09 19:51:56;;;;;;;35.50;17.92;;;;;;;7.39;59.19;102194.09;4838571;29;20041;-71
2022/03/09 19:54:22;;;;;;;34.50;17.00;;;;;;;7.31;59.81;102196.78;4828826;29;20514;-71
2022/03/09 19:56:50;;;;;;;34.08;16.77;;;;;;;7.25;60.18;102193.34;4844263;29;20057;-71
2022/03/09 19:59:16;;;;;;;41.85;17.08;;;;;;;7.17;60.60;102196.94;4838530;29;20030;-74
2022/03/09 20:01:42;;;;;;;40.30;19.38;;;;;;;7.16;59.28;102194.28;4824819;29;20437;-70
2022/03/09 20:04:07;;;;;;;36.65;18.02;;;;;;;7.15;59.23;102198.72;4824681;29;20041;-72
2022/03/09 20:06:32;;;;;;;36.05;17.05;;;;;;;7.13;60.37;102205.75;4826809;29;20109;-74
2022/03/09 20:08:58;;;;;;;39.58;18.15;;;;;;;7.15;59.61;102211.03;4825940;29;20446;-74
2022/03/09 20:11:23;;;;;;;39.03;18.25;;;;;;;7.08;59.21;102207.53;4827074;29;20376;-73
2022/03/09 20:13:48;;;;;;;38.58;17.80;;;;;;;7.01;59.69;102216.41;4825913;29;20046;-73
2022/03/09 20:16:15;;;;;;;34.75;17.13;;;;;;;6.98;59.99;102209.38;4825063;29;20038;-75
2022/03/09 20:18:42;;;;;;;37.92;18.10;;;;;;;6.95;59.59;102209.41;4835946;29;20027;-73
2022/03/09 20:21:08;;;;;;;38.20;18.25;;;;;;;6.88;60.33;102213.84;4830044;29;20026;-74
2022/03/09 20:23:37;;;;;;;33.92;17.63;;;;;;;6.88;60.67;102205.09;4827894;29;20573;-72
2022/03/09 20:26:05;;;;;;;42.58;18.65;;;;;;;6.83;61.27;102207.75;4815334;29;20034;-71
2022/03/09 20:28:31;;;;;;;40.88;18.08;;;;;;;6.81;60.87;102206.00;4825655;29;20030;-74
2022/03/09 20:30:57;;;;;;;43.65;17.90;;;;;;;6.78;61.20;102211.28;4826624;29;20411;-70
2022/03/09 20:33:23;;;;;;;45.63;17.73;;;;;;;6.76;60.08;102213.91;4834441;29;20031;-73